WSAPWSSL

Guest
Details From WSAP - Singapore Paya Lebar Aero
To WSSL - Seletar
Flight Number -
Tags Routegen Generated
Created
Modified
Stats Distance 12 nm / 22 km
Max Altitude 100 ft / 30 m
Waypoints 5
Social Downloads 1
Likes 0
Share VATSIM

Download

Looking for another format? Having issues loading an existing format? Contact us
Advertisement - Login to hide

Notes

Departing runway 2 WSAP. Arriving runway 3 WSSL.

Route

WSAP +01.44_+103.94 +01.46_+103.93 +01.48_+103.91 WSSL

ID Type Via Altitude Latitude Longitude Leg Dist Tot Dist Heading (true) Name
O WSAP APT - 0 ft / 0 m 1.37617˚ 103.91619˚ - 0 nm - -
+01.44_+103.94 LATLON - 100 ft / 30 m 1.44282˚ 103.94437˚ 4 nm 4 nm 23° / 23° -
+01.46_+103.93 LATLON - 100 ft / 30 m 1.46293˚ 103.92759˚ 1 nm 5 nm 320° / 320° -
+01.48_+103.91 LATLON - 100 ft / 30 m 1.48303˚ 103.91081˚ 1 nm 7 nm 320° / 320° -
O WSSL APT - 0 ft / 0 m 1.42244˚ 103.87123˚ 4 nm 11 nm 213° / 213° Seletar

Altitude Profile

Advertisement - Login to hide

WSAP

Details ICAO WSAP (QPG)
Name Singapore Paya Lebar Aero
Region Singapore
Timezone Asia/Singapore (UTC+8.0)
Stats Elevation 65 ft / 20 m (AMSL)
Location 1.360403° 103.909525°
Runways 1
Magnetic Variation 0.223° E

METAR

WSAP 121400Z 00000KT 9999 FEW016 BKN160 26/25 Q1011

Decode

TAF

TAF WSAP 121100Z 1212/1318 34008KT 9999 FEW018CB SCT020 TEMPO 1306/1310 3000 TSRA FEW012CB BKN015

Decode

Departure Runways

ID Width Length Bearing (true) Bearing (mag) Surface Threshold Offset Overrun Length
02 200 ft / 61 m 12,490 ft / 3,807 m 22.91° 22.69° Asphalt 0 ft / 0 m 1,066 ft / 325 m
20 200 ft / 61 m 12,490 ft / 3,807 m 202.91° 202.69° Asphalt 0 ft / 0 m 984 ft / 300 m

WSSL

Details ICAO WSSL (XSP)
Name Seletar
Region Singapore
Timezone Asia/Singapore (UTC+8.0)
Stats Elevation 36 ft / 11 m (AMSL)
Location 1.416427° 103.867299°
Runways 1
Magnetic Variation 0.218° E

METAR

WSSL 121400Z 00000KT 9999 FEW016 SCT200 25/24 Q1011

Decode

TAF

TAF WSSL 121100Z 1212/1318 34008KT 9999 FEW018CB SCT020 TEMPO 1306/1310 3000 TSRA FEW012CB BKN015

Decode

Destination Runways

ID Width Length Bearing (true) Bearing (mag) Surface Threshold Offset Overrun Length
03 151 ft / 46 m 5,243 ft / 1,598 m 33.15° 32.93° Asphalt 0 ft / 0 m 197 ft / 60 m
21 151 ft / 46 m 5,243 ft / 1,598 m 213.15° 212.93° Asphalt 0 ft / 0 m 197 ft / 60 m